sensor_id;sensor_type;location;lat;lon;timestamp;temperature;humidity
2389;DHT22;1205;47.984;7.668;2023-04-25T00:01:47;11.20;99.90
2389;DHT22;1205;47.984;7.668;2023-04-25T00:04:13;11.30;99.90
2389;DHT22;1205;47.984;7.668;2023-04-25T00:06:38;11.20;99.90
2389;DHT22;1205;47.984;7.668;2023-04-25T00:09:05;11.20;99.90
2389;DHT22;1205;47.984;7.668;2023-04-25T00:11:35;11.10;99.90
2389;DHT22;1205;47.984;7.668;2023-04-25T00:14:02;11.10;99.90
2389;DHT22;1205;47.984;7.668;2023-04-25T00:16:29;11.10;99.90
2389;DHT22;1205;47.984;7.668;2023-04-25T00:18:55;11.10;99.90
2389;DHT22;1205;47.984;7.668;2023-04-25T00:21:22;11.10;99.90
2389;DHT22;1205;47.984;7.668;2023-04-25T00:23:50;11.00;99.90
2389;DHT22;1205;47.984;7.668;2023-04-25T00:26:15;11.10;99.90
2389;DHT22;1205;47.984;7.668;2023-04-25T00:28:41;11.00;99.90
2389;DHT22;1205;47.984;7.668;2023-04-25T00:31:06;11.10;99.90
2389;DHT22;1205;47.984;7.668;2023-04-25T00:33:32;11.10;99.90
2389;DHT22;1205;47.984;7.668;2023-04-25T00:35:57;11.00;99.90
2389;DHT22;1205;47.984;7.668;2023-04-25T00:38:23;10.90;99.90
2389;DHT22;1205;47.984;7.668;2023-04-25T00:40:49;10.80;99.90
2389;DHT22;1205;47.984;7.668;2023-04-25T00:43:14;10.90;99.90
2389;DHT22;1205;47.984;7.668;2023-04-25T00:45:40;10.80;99.90
2389;DHT22;1205;47.984;7.668;2023-04-25T00:48:06;10.70;99.90
2389;DHT22;1205;47.984;7.668;2023-04-25T00:50:33;10.80;99.90
2389;DHT22;1205;47.984;7.668;2023-04-25T00:52:59;10.70;99.90
2389;DHT22;1205;47.984;7.668;2023-04-25T00:55:25;10.70;99.90
2389;DHT22;1205;47.984;7.668;2023-04-25T00:57:51;10.60;99.90
2389;DHT22;1205;47.984;7.668;2023-04-25T01:00:17;10.50;99.90
2389;DHT22;1205;47.984;7.668;2023-04-25T01:02:43;10.50;99.90
2389;DHT22;1205;47.984;7.668;2023-04-25T01:05:10;10.40;99.90
2389;DHT22;1205;47.984;7.668;2023-04-25T01:07:35;10.40;99.90
2389;DHT22;1205;47.984;7.668;2023-04-25T01:10:01;10.30;99.90
2389;DHT22;1205;47.984;7.668;2023-04-25T01:12:27;10.30;99.90
2389;DHT22;1205;47.984;7.668;2023-04-25T01:14:53;10.30;99.90
2389;DHT22;1205;47.984;7.668;2023-04-25T01:17:19;10.30;99.90
2389;DHT22;1205;47.984;7.668;2023-04-25T01:19:45;10.30;99.90
2389;DHT22;1205;47.984;7.668;2023-04-25T01:22:13;10.30;99.90
2389;DHT22;1205;47.984;7.668;2023-04-25T01:24:39;10.30;99.90
2389;DHT22;1205;47.984;7.668;2023-04-25T01:27:05;10.40;99.90
2389;DHT22;1205;47.984;7.668;2023-04-25T01:29:32;10.40;99.90
2389;DHT22;1205;47.984;7.668;2023-04-25T01:31:58;10.40;99.90
2389;DHT22;1205;47.984;7.668;2023-04-25T01:34:24;10.40;99.90
2389;DHT22;1205;47.984;7.668;2023-04-25T01:36:50;10.50;99.90
2389;DHT22;1205;47.984;7.668;2023-04-25T01:39:17;10.50;99.90
2389;DHT22;1205;47.984;7.668;2023-04-25T01:41:43;10.40;99.90
2389;DHT22;1205;47.984;7.668;2023-04-25T01:44:10;10.50;99.90
2389;DHT22;1205;47.984;7.668;2023-04-25T01:46:35;10.50;99.90
2389;DHT22;1205;47.984;7.668;2023-04-25T01:49:01;10.40;99.90
2389;DHT22;1205;47.984;7.668;2023-04-25T01:51:27;10.40;99.90
2389;DHT22;1205;47.984;7.668;2023-04-25T01:53:54;10.40;99.90
2389;DHT22;1205;47.984;7.668;2023-04-25T01:56:20;10.30;99.90
2389;DHT22;1205;47.984;7.668;2023-04-25T01:58:46;10.30;99.90
2389;DHT22;1205;47.984;7.668;2023-04-25T02:01:11;10.30;99.90
2389;DHT22;1205;47.984;7.668;2023-04-25T02:03:37;10.30;99.90
2389;DHT22;1205;47.984;7.668;2023-04-25T02:06:03;10.30;99.90
2389;DHT22;1205;47.984;7.668;2023-04-25T02:08:28;10.30;99.90
2389;DHT22;1205;47.984;7.668;2023-04-25T02:10:55;10.30;99.90
2389;DHT22;1205;47.984;7.668;2023-04-25T02:13:21;10.30;99.90
2389;DHT22;1205;47.984;7.668;2023-04-25T02:15:46;10.30;99.90
2389;DHT22;1205;47.984;7.668;2023-04-25T02:18:12;10.30;99.90
2389;DHT22;1205;47.984;7.668;2023-04-25T02:20:38;10.30;99.90
2389;DHT22;1205;47.984;7.668;2023-04-25T02:23:03;10.40;99.90
2389;DHT22;1205;47.984;7.668;2023-04-25T02:25:29;10.40;99.90
2389;DHT22;1205;47.984;7.668;2023-04-25T02:27:55;10.30;99.90
2389;DHT22;1205;47.984;7.668;2023-04-25T02:30:20;10.30;99.90
2389;DHT22;1205;47.984;7.668;2023-04-25T02:32:46;10.40;99.90
2389;DHT22;1205;47.984;7.668;2023-04-25T02:35:12;10.30;99.90
2389;DHT22;1205;47.984;7.668;2023-04-25T02:37:38;10.30;99.90
2389;DHT22;1205;47.984;7.668;2023-04-25T02:40:05;10.20;99.90
2389;DHT22;1205;47.984;7.668;2023-04-25T02:42:31;10.30;99.90
2389;DHT22;1205;47.984;7.668;2023-04-25T02:44:56;10.20;99.90
2389;DHT22;1205;47.984;7.668;2023-04-25T02:47:22;10.30;99.90
2389;DHT22;1205;47.984;7.668;2023-04-25T02:49:47;10.30;99.90
2389;DHT22;1205;47.984;7.668;2023-04-25T02:52:13;10.30;99.90
2389;DHT22;1205;47.984;7.668;2023-04-25T02:54:40;10.20;99.90
2389;DHT22;1205;47.984;7.668;2023-04-25T02:57:06;10.30;99.90
2389;DHT22;1205;47.984;7.668;2023-04-25T02:59:32;10.20;99.90
2389;DHT22;1205;47.984;7.668;2023-04-25T03:01:58;10.20;99.90
2389;DHT22;1205;47.984;7.668;2023-04-25T03:04:23;10.20;99.90
2389;DHT22;1205;47.984;7.668;2023-04-25T03:06:50;10.10;99.90
2389;DHT22;1205;47.984;7.668;2023-04-25T03:09:16;10.10;99.90
2389;DHT22;1205;47.984;7.668;2023-04-25T03:11:42;10.10;99.90
2389;DHT22;1205;47.984;7.668;2023-04-25T03:14:07;10.10;99.90
2389;DHT22;1205;47.984;7.668;2023-04-25T03:16:33;10.10;99.90
2389;DHT22;1205;47.984;7.668;2023-04-25T03:18:59;10.20;99.90
2389;DHT22;1205;47.984;7.668;2023-04-25T03:21:24;10.10;99.90
2389;DHT22;1205;47.984;7.668;2023-04-25T03:23:50;10.10;99.90
2389;DHT22;1205;47.984;7.668;2023-04-25T03:26:16;10.10;99.90
2389;DHT22;1205;47.984;7.668;2023-04-25T03:28:41;10.10;99.90
2389;DHT22;1205;47.984;7.668;2023-04-25T03:31:07;10.00;99.90
2389;DHT22;1205;47.984;7.668;2023-04-25T03:33:32;10.00;99.90
2389;DHT22;1205;47.984;7.668;2023-04-25T03:35:58;10.00;99.90
2389;DHT22;1205;47.984;7.668;2023-04-25T03:38:24;10.00;99.90
2389;DHT22;1205;47.984;7.668;2023-04-25T03:40:50;9.90;99.90
2389;DHT22;1205;47.984;7.668;2023-04-25T03:43:16;9.80;99.90
2389;DHT22;1205;47.984;7.668;2023-04-25T03:45:42;9.80;99.90
2389;DHT22;1205;47.984;7.668;2023-04-25T03:48:07;9.70;99.90
2389;DHT22;1205;47.984;7.668;2023-04-25T03:50:33;9.70;99.90
2389;DHT22;1205;47.984;7.668;2023-04-25T03:52:59;9.70;99.90
2389;DHT22;1205;47.984;7.668;2023-04-25T03:55:24;9.60;99.90
2389;DHT22;1205;47.984;7.668;2023-04-25T03:57:50;9.50;99.90
2389;DHT22;1205;47.984;7.668;2023-04-25T04:00:15;9.50;99.90
2389;DHT22;1205;47.984;7.668;2023-04-25T04:02:41;9.50;99.90
2389;DHT22;1205;47.984;7.668;2023-04-25T04:05:07;9.40;99.90
2389;DHT22;1205;47.984;7.668;2023-04-25T04:07:32;9.40;99.90
2389;DHT22;1205;47.984;7.668;2023-04-25T04:09:59;9.40;99.90
2389;DHT22;1205;47.984;7.668;2023-04-25T04:12:24;9.30;99.90
2389;DHT22;1205;47.984;7.668;2023-04-25T04:14:50;9.40;99.90
2389;DHT22;1205;47.984;7.668;2023-04-25T04:17:15;9.40;99.90
2389;DHT22;1205;47.984;7.668;2023-04-25T04:19:41;9.50;99.90
2389;DHT22;1205;47.984;7.668;2023-04-25T04:22:07;9.50;99.90
2389;DHT22;1205;47.984;7.668;2023-04-25T04:24:32;9.50;99.90
2389;DHT22;1205;47.984;7.668;2023-04-25T04:26:58;9.50;99.90
2389;DHT22;1205;47.984;7.668;2023-04-25T04:29:24;9.50;99.90
2389;DHT22;1205;47.984;7.668;2023-04-25T04:31:51;9.40;99.90
2389;DHT22;1205;47.984;7.668;2023-04-25T04:34:17;9.60;99.90
2389;DHT22;1205;47.984;7.668;2023-04-25T04:36:44;9.60;99.90
2389;DHT22;1205;47.984;7.668;2023-04-25T04:39:11;9.50;99.90
2389;DHT22;1205;47.984;7.668;2023-04-25T04:41:37;9.60;99.90
2389;DHT22;1205;47.984;7.668;2023-04-25T04:44:03;9.60;99.90
2389;DHT22;1205;47.984;7.668;2023-04-25T04:46:29;9.70;99.90
2389;DHT22;1205;47.984;7.668;2023-04-25T04:48:56;9.70;99.90
2389;DHT22;1205;47.984;7.668;2023-04-25T04:51:22;9.70;99.90
2389;DHT22;1205;47.984;7.668;2023-04-25T04:53:47;9.80;99.90
2389;DHT22;1205;47.984;7.668;2023-04-25T04:56:13;9.80;99.90
2389;DHT22;1205;47.984;7.668;2023-04-25T04:58:38;9.80;99.90
2389;DHT22;1205;47.984;7.668;2023-04-25T05:01:04;9.80;99.90
2389;DHT22;1205;47.984;7.668;2023-04-25T05:03:29;9.80;99.90
2389;DHT22;1205;47.984;7.668;2023-04-25T05:05:55;9.70;99.90
2389;DHT22;1205;47.984;7.668;2023-04-25T05:08:20;9.80;99.90
2389;DHT22;1205;47.984;7.668;2023-04-25T05:10:46;9.60;99.90
2389;DHT22;1205;47.984;7.668;2023-04-25T05:13:12;9.30;99.90
2389;DHT22;1205;47.984;7.668;2023-04-25T05:15:37;9.40;99.90
2389;DHT22;1205;47.984;7.668;2023-04-25T05:18:03;9.40;99.90
2389;DHT22;1205;47.984;7.668;2023-04-25T05:20:28;9.40;99.90
2389;DHT22;1205;47.984;7.668;2023-04-25T05:22:54;9.50;99.90
2389;DHT22;1205;47.984;7.668;2023-04-25T05:25:20;9.60;99.90
2389;DHT22;1205;47.984;7.668;2023-04-25T05:27:45;9.40;99.90
2389;DHT22;1205;47.984;7.668;2023-04-25T05:30:11;9.50;99.90
2389;DHT22;1205;47.984;7.668;2023-04-25T05:32:37;9.50;99.90
2389;DHT22;1205;47.984;7.668;2023-04-25T05:35:02;9.40;99.90
2389;DHT22;1205;47.984;7.668;2023-04-25T05:37:28;9.40;99.90
2389;DHT22;1205;47.984;7.668;2023-04-25T05:39:55;9.40;99.90
2389;DHT22;1205;47.984;7.668;2023-04-25T05:42:21;9.30;99.90
2389;DHT22;1205;47.984;7.668;2023-04-25T05:44:47;9.20;99.90
2389;DHT22;1205;47.984;7.668;2023-04-25T05:47:12;9.10;99.90
2389;DHT22;1205;47.984;7.668;2023-04-25T05:49:38;9.00;99.90
2389;DHT22;1205;47.984;7.668;2023-04-25T05:52:04;9.00;99.90
2389;DHT22;1205;47.984;7.668;2023-04-25T05:54:29;9.00;99.90
2389;DHT22;1205;47.984;7.668;2023-04-25T05:56:56;8.90;99.90
2389;DHT22;1205;47.984;7.668;2023-04-25T05:59:22;8.80;99.90
2389;DHT22;1205;47.984;7.668;2023-04-25T06:01:48;8.90;99.90
2389;DHT22;1205;47.984;7.668;2023-04-25T06:04:13;8.90;99.90
2389;DHT22;1205;47.984;7.668;2023-04-25T06:06:39;8.90;99.90
2389;DHT22;1205;47.984;7.668;2023-04-25T06:09:04;9.00;99.90
2389;DHT22;1205;47.984;7.668;2023-04-25T06:11:30;8.80;99.90
2389;DHT22;1205;47.984;7.668;2023-04-25T06:13:55;8.70;99.90
2389;DHT22;1205;47.984;7.668;2023-04-25T06:16:21;8.80;99.90
2389;DHT22;1205;47.984;7.668;2023-04-25T06:18:46;8.60;99.90
2389;DHT22;1205;47.984;7.668;2023-04-25T06:21:12;8.60;99.90
2389;DHT22;1205;47.984;7.668;2023-04-25T06:23:38;8.40;99.90
2389;DHT22;1205;47.984;7.668;2023-04-25T06:26:03;8.30;99.90
2389;DHT22;1205;47.984;7.668;2023-04-25T06:28:29;8.40;99.90
2389;DHT22;1205;47.984;7.668;2023-04-25T06:30:54;8.60;99.90
2389;DHT22;1205;47.984;7.668;2023-04-25T06:33:20;8.50;99.90
2389;DHT22;1205;47.984;7.668;2023-04-25T06:35:46;8.50;99.90
2389;DHT22;1205;47.984;7.668;2023-04-25T06:38:12;8.30;99.90
2389;DHT22;1205;47.984;7.668;2023-04-25T06:40:38;8.40;99.90
2389;DHT22;1205;47.984;7.668;2023-04-25T06:43:03;8.20;99.90
2389;DHT22;1205;47.984;7.668;2023-04-25T06:45:29;8.50;99.90
2389;DHT22;1205;47.984;7.668;2023-04-25T06:47:54;8.50;99.90
2389;DHT22;1205;47.984;7.668;2023-04-25T06:50:20;8.60;99.90
2389;DHT22;1205;47.984;7.668;2023-04-25T06:52:46;8.80;99.90
2389;DHT22;1205;47.984;7.668;2023-04-25T06:55:11;8.90;99.90
2389;DHT22;1205;47.984;7.668;2023-04-25T06:57:37;8.90;99.90
2389;DHT22;1205;47.984;7.668;2023-04-25T07:00:03;9.10;99.90
2389;DHT22;1205;47.984;7.668;2023-04-25T07:02:30;9.10;99.90
2389;DHT22;1205;47.984;7.668;2023-04-25T07:04:56;9.00;99.90
2389;DHT22;1205;47.984;7.668;2023-04-25T07:07:25;9.10;99.90
2389;DHT22;1205;47.984;7.668;2023-04-25T07:09:50;9.00;99.90
2389;DHT22;1205;47.984;7.668;2023-04-25T07:12:16;9.60;99.90
2389;DHT22;1205;47.984;7.668;2023-04-25T07:14:42;10.30;99.90
2389;DHT22;1205;47.984;7.668;2023-04-25T07:17:07;10.80;99.90
2389;DHT22;1205;47.984;7.668;2023-04-25T07:19:33;11.20;99.90
2389;DHT22;1205;47.984;7.668;2023-04-25T07:21:59;10.70;99.90
2389;DHT22;1205;47.984;7.668;2023-04-25T07:24:24;10.20;99.90
2389;DHT22;1205;47.984;7.668;2023-04-25T07:26:50;10.10;99.90
2389;DHT22;1205;47.984;7.668;2023-04-25T07:29:15;10.00;99.90
2389;DHT22;1205;47.984;7.668;2023-04-25T07:31:41;9.90;99.90
2389;DHT22;1205;47.984;7.668;2023-04-25T07:34:07;9.80;99.90
2389;DHT22;1205;47.984;7.668;2023-04-25T07:36:32;9.70;99.90
2389;DHT22;1205;47.984;7.668;2023-04-25T07:38:58;9.70;99.90
2389;DHT22;1205;47.984;7.668;2023-04-25T07:41:23;9.80;99.90
2389;DHT22;1205;47.984;7.668;2023-04-25T07:43:49;9.90;99.90
2389;DHT22;1205;47.984;7.668;2023-04-25T07:46:15;9.80;99.90
2389;DHT22;1205;47.984;7.668;2023-04-25T07:48:40;9.80;99.90
2389;DHT22;1205;47.984;7.668;2023-04-25T07:51:06;9.90;99.90
2389;DHT22;1205;47.984;7.668;2023-04-25T07:53:32;9.80;99.90
2389;DHT22;1205;47.984;7.668;2023-04-25T07:56:00;10.00;99.90
2389;DHT22;1205;47.984;7.668;2023-04-25T07:58:25;10.00;99.90
2389;DHT22;1205;47.984;7.668;2023-04-25T08:00:51;10.20;99.90
2389;DHT22;1205;47.984;7.668;2023-04-25T08:03:16;10.30;99.90
2389;DHT22;1205;47.984;7.668;2023-04-25T08:05:42;10.40;99.90
2389;DHT22;1205;47.984;7.668;2023-04-25T08:08:08;10.40;99.90
2389;DHT22;1205;47.984;7.668;2023-04-25T08:10:34;10.50;99.90
2389;DHT22;1205;47.984;7.668;2023-04-25T08:12:59;10.60;99.90
2389;DHT22;1205;47.984;7.668;2023-04-25T08:15:25;10.60;99.90
2389;DHT22;1205;47.984;7.668;2023-04-25T08:17:51;10.60;99.90
2389;DHT22;1205;47.984;7.668;2023-04-25T08:20:17;10.60;99.90
2389;DHT22;1205;47.984;7.668;2023-04-25T08:22:42;10.40;99.90
2389;DHT22;1205;47.984;7.668;2023-04-25T08:25:08;10.40;99.90
2389;DHT22;1205;47.984;7.668;2023-04-25T08:27:34;10.50;99.90
2389;DHT22;1205;47.984;7.668;2023-04-25T08:30:00;10.60;99.90
2389;DHT22;1205;47.984;7.668;2023-04-25T08:32:26;10.70;99.90
2389;DHT22;1205;47.984;7.668;2023-04-25T08:34:51;10.80;99.90
2389;DHT22;1205;47.984;7.668;2023-04-25T08:37:19;10.70;99.90
2389;DHT22;1205;47.984;7.668;2023-04-25T08:39:45;10.90;99.90
2389;DHT22;1205;47.984;7.668;2023-04-25T08:42:15;11.00;99.90
2389;DHT22;1205;47.984;7.668;2023-04-25T08:44:40;11.10;99.90
2389;DHT22;1205;47.984;7.668;2023-04-25T08:47:06;11.20;99.90
2389;DHT22;1205;47.984;7.668;2023-04-25T08:49:32;11.30;99.90
2389;DHT22;1205;47.984;7.668;2023-04-25T08:52:03;11.50;99.90
2389;DHT22;1205;47.984;7.668;2023-04-25T08:54:31;11.60;99.90
2389;DHT22;1205;47.984;7.668;2023-04-25T08:57:00;11.70;99.90
2389;DHT22;1205;47.984;7.668;2023-04-25T08:59:30;11.80;99.90
2389;DHT22;1205;47.984;7.668;2023-04-25T09:01:57;11.90;99.90
2389;DHT22;1205;47.984;7.668;2023-04-25T09:04:22;11.90;99.90
2389;DHT22;1205;47.984;7.668;2023-04-25T09:06:48;11.70;99.90
2389;DHT22;1205;47.984;7.668;2023-04-25T09:09:14;11.60;99.90
2389;DHT22;1205;47.984;7.668;2023-04-25T09:11:40;11.50;99.90
2389;DHT22;1205;47.984;7.668;2023-04-25T09:14:18;11.50;99.90
2389;DHT22;1205;47.984;7.668;2023-04-25T09:19:35;11.70;99.90
2389;DHT22;1205;47.984;7.668;2023-04-25T09:22:03;11.80;99.90
2389;DHT22;1205;47.984;7.668;2023-04-25T09:24:40;12.00;99.90
2389;DHT22;1205;47.984;7.668;2023-04-25T09:27:12;12.10;99.90
2389;DHT22;1205;47.984;7.668;2023-04-25T09:29:39;12.30;99.90
2389;DHT22;1205;47.984;7.668;2023-04-25T09:32:13;12.40;99.90
2389;DHT22;1205;47.984;7.668;2023-04-25T09:34:40;12.70;99.90
2389;DHT22;1205;47.984;7.668;2023-04-25T09:37:10;12.70;99.90
2389;DHT22;1205;47.984;7.668;2023-04-25T09:39:39;12.80;99.90
2389;DHT22;1205;47.984;7.668;2023-04-25T09:42:05;12.60;99.90
2389;DHT22;1205;47.984;7.668;2023-04-25T09:44:31;12.90;99.90
2389;DHT22;1205;47.984;7.668;2023-04-25T09:46:57;13.00;99.90
2389;DHT22;1205;47.984;7.668;2023-04-25T09:49:22;12.90;99.90
2389;DHT22;1205;47.984;7.668;2023-04-25T09:51:56;13.10;99.90
2389;DHT22;1205;47.984;7.668;2023-04-25T09:54:25;13.00;99.90
2389;DHT22;1205;47.984;7.668;2023-04-25T09:56:52;13.60;99.90
2389;DHT22;1205;47.984;7.668;2023-04-25T09:59:20;14.20;99.90
2389;DHT22;1205;47.984;7.668;2023-04-25T10:01:48;14.60;99.90
2389;DHT22;1205;47.984;7.668;2023-04-25T10:04:19;14.30;99.90
2389;DHT22;1205;47.984;7.668;2023-04-25T10:06:48;14.60;99.90
2389;DHT22;1205;47.984;7.668;2023-04-25T10:09:15;15.10;99.90
2389;DHT22;1205;47.984;7.668;2023-04-25T10:11:41;15.50;99.90
2389;DHT22;1205;47.984;7.668;2023-04-25T10:14:07;15.60;99.90
2389;DHT22;1205;47.984;7.668;2023-04-25T10:16:33;15.00;98.80
2389;DHT22;1205;47.984;7.668;2023-04-25T10:18:59;14.90;99.20
2389;DHT22;1205;47.984;7.668;2023-04-25T10:21:27;14.40;99.30
2389;DHT22;1205;47.984;7.668;2023-04-25T10:23:53;14.50;99.90
2389;DHT22;1205;47.984;7.668;2023-04-25T10:26:19;14.30;99.90
2389;DHT22;1205;47.984;7.668;2023-04-25T10:29:02;14.20;99.90
2389;DHT22;1205;47.984;7.668;2023-04-25T10:31:30;13.90;99.90
2389;DHT22;1205;47.984;7.668;2023-04-25T10:33:56;14.30;99.90
2389;DHT22;1205;47.984;7.668;2023-04-25T10:36:22;14.30;99.90
2389;DHT22;1205;47.984;7.668;2023-04-25T10:38:50;14.10;99.00
2389;DHT22;1205;47.984;7.668;2023-04-25T10:41:18;14.10;99.10
2389;DHT22;1205;47.984;7.668;2023-04-25T10:43:46;14.30;97.80
2389;DHT22;1205;47.984;7.668;2023-04-25T10:46:19;14.30;99.10
2389;DHT22;1205;47.984;7.668;2023-04-25T10:48:47;14.10;98.10
2389;DHT22;1205;47.984;7.668;2023-04-25T10:51:24;13.90;99.90
2389;DHT22;1205;47.984;7.668;2023-04-25T10:56:33;13.50;99.90
2389;DHT22;1205;47.984;7.668;2023-04-25T10:59:13;13.30;99.90
2389;DHT22;1205;47.984;7.668;2023-04-25T11:01:46;13.30;99.90
2389;DHT22;1205;47.984;7.668;2023-04-25T11:04:25;13.40;99.90
2389;DHT22;1205;47.984;7.668;2023-04-25T11:09:19;13.20;99.90
2389;DHT22;1205;47.984;7.668;2023-04-25T11:11:54;12.90;99.90
2389;DHT22;1205;47.984;7.668;2023-04-25T11:14:20;12.70;99.90
2389;DHT22;1205;47.984;7.668;2023-04-25T11:16:45;12.60;99.90
2389;DHT22;1205;47.984;7.668;2023-04-25T11:19:11;12.30;99.90
2389;DHT22;1205;47.984;7.668;2023-04-25T11:21:37;12.20;99.90
2389;DHT22;1205;47.984;7.668;2023-04-25T11:24:02;12.30;99.90
2389;DHT22;1205;47.984;7.668;2023-04-25T11:26:30;12.50;99.90
2389;DHT22;1205;47.984;7.668;2023-04-25T11:28:59;12.50;99.90
2389;DHT22;1205;47.984;7.668;2023-04-25T11:31:29;12.50;99.90
2389;DHT22;1205;47.984;7.668;2023-04-25T11:33:57;12.40;99.90
2389;DHT22;1205;47.984;7.668;2023-04-25T11:36:23;12.40;99.90
2389;DHT22;1205;47.984;7.668;2023-04-25T11:38:50;12.40;99.90
2389;DHT22;1205;47.984;7.668;2023-04-25T11:41:17;12.20;99.90
2389;DHT22;1205;47.984;7.668;2023-04-25T11:43:43;12.30;99.90
2389;DHT22;1205;47.984;7.668;2023-04-25T11:46:09;12.50;99.90
2389;DHT22;1205;47.984;7.668;2023-04-25T11:48:39;12.60;99.90
2389;DHT22;1205;47.984;7.668;2023-04-25T11:51:05;12.40;99.90
2389;DHT22;1205;47.984;7.668;2023-04-25T11:53:31;12.40;99.90
2389;DHT22;1205;47.984;7.668;2023-04-25T11:55:56;12.30;99.90
2389;DHT22;1205;47.984;7.668;2023-04-25T11:58:22;12.50;99.90
2389;DHT22;1205;47.984;7.668;2023-04-25T12:00:48;12.60;99.90
2389;DHT22;1205;47.984;7.668;2023-04-25T12:03:14;12.70;99.90
2389;DHT22;1205;47.984;7.668;2023-04-25T12:05:39;12.90;99.90
2389;DHT22;1205;47.984;7.668;2023-04-25T12:08:15;12.80;99.90
2389;DHT22;1205;47.984;7.668;2023-04-25T12:10:42;12.90;99.90
2389;DHT22;1205;47.984;7.668;2023-04-25T12:15:47;13.10;99.90
2389;DHT22;1205;47.984;7.668;2023-04-25T12:18:13;13.10;99.90
2389;DHT22;1205;47.984;7.668;2023-04-25T12:20:38;13.00;99.90
2389;DHT22;1205;47.984;7.668;2023-04-25T12:23:07;13.00;99.90
2389;DHT22;1205;47.984;7.668;2023-04-25T12:25:40;13.10;99.90
2389;DHT22;1205;47.984;7.668;2023-04-25T12:28:23;13.20;99.90
2389;DHT22;1205;47.984;7.668;2023-04-25T12:30:56;13.00;99.90
2389;DHT22;1205;47.984;7.668;2023-04-25T12:33:23;13.20;99.90
2389;DHT22;1205;47.984;7.668;2023-04-25T12:35:49;13.30;99.90
2389;DHT22;1205;47.984;7.668;2023-04-25T12:40:51;13.20;99.90
2389;DHT22;1205;47.984;7.668;2023-04-25T12:43:16;13.00;99.90
2389;DHT22;1205;47.984;7.668;2023-04-25T12:45:43;12.80;99.90
2389;DHT22;1205;47.984;7.668;2023-04-25T12:48:09;13.00;99.90
2389;DHT22;1205;47.984;7.668;2023-04-25T12:50:35;13.00;99.90
2389;DHT22;1205;47.984;7.668;2023-04-25T12:53:00;13.00;99.90
2389;DHT22;1205;47.984;7.668;2023-04-25T12:55:26;13.10;99.90
2389;DHT22;1205;47.984;7.668;2023-04-25T12:57:53;13.20;99.90
2389;DHT22;1205;47.984;7.668;2023-04-25T13:00:18;13.40;99.90
2389;DHT22;1205;47.984;7.668;2023-04-25T13:02:45;13.40;99.90
2389;DHT22;1205;47.984;7.668;2023-04-25T13:05:14;13.50;99.90
2389;DHT22;1205;47.984;7.668;2023-04-25T13:07:40;13.70;99.90
2389;DHT22;1205;47.984;7.668;2023-04-25T13:10:07;13.90;99.90
2389;DHT22;1205;47.984;7.668;2023-04-25T13:12:32;14.00;99.80
2389;DHT22;1205;47.984;7.668;2023-04-25T13:14:58;14.10;99.90
2389;DHT22;1205;47.984;7.668;2023-04-25T13:17:24;14.30;99.80
2389;DHT22;1205;47.984;7.668;2023-04-25T13:19:49;14.50;99.30
2389;DHT22;1205;47.984;7.668;2023-04-25T13:22:15;14.40;99.50
2389;DHT22;1205;47.984;7.668;2023-04-25T13:24:42;14.50;98.90
2389;DHT22;1205;47.984;7.668;2023-04-25T13:27:08;14.60;96.50
2389;DHT22;1205;47.984;7.668;2023-04-25T13:29:34;14.90;96.50
2389;DHT22;1205;47.984;7.668;2023-04-25T13:32:01;15.00;97.50
2389;DHT22;1205;47.984;7.668;2023-04-25T13:34:28;15.00;97.00
2389;DHT22;1205;47.984;7.668;2023-04-25T13:36:53;15.50;96.40
2389;DHT22;1205;47.984;7.668;2023-04-25T13:39:19;15.50;95.90
2389;DHT22;1205;47.984;7.668;2023-04-25T13:41:45;15.60;96.10
2389;DHT22;1205;47.984;7.668;2023-04-25T13:44:10;15.60;95.10
2389;DHT22;1205;47.984;7.668;2023-04-25T13:46:36;15.40;93.90
2389;DHT22;1205;47.984;7.668;2023-04-25T13:49:03;15.20;95.30
2389;DHT22;1205;47.984;7.668;2023-04-25T13:51:28;15.20;95.20
2389;DHT22;1205;47.984;7.668;2023-04-25T13:53:54;15.30;95.80
2389;DHT22;1205;47.984;7.668;2023-04-25T13:56:19;15.00;96.40
2389;DHT22;1205;47.984;7.668;2023-04-25T13:58:45;14.70;97.40
2389;DHT22;1205;47.984;7.668;2023-04-25T14:01:11;14.60;98.30
2389;DHT22;1205;47.984;7.668;2023-04-25T14:03:37;14.30;98.50
2389;DHT22;1205;47.984;7.668;2023-04-25T14:06:02;14.00;99.40
2389;DHT22;1205;47.984;7.668;2023-04-25T14:08:29;13.60;99.90
2389;DHT22;1205;47.984;7.668;2023-04-25T14:10:55;13.30;99.90
2389;DHT22;1205;47.984;7.668;2023-04-25T14:13:21;13.10;99.90
2389;DHT22;1205;47.984;7.668;2023-04-25T14:15:46;13.10;99.90
2389;DHT22;1205;47.984;7.668;2023-04-25T14:18:12;12.90;99.90
2389;DHT22;1205;47.984;7.668;2023-04-25T14:20:38;12.70;99.90
2389;DHT22;1205;47.984;7.668;2023-04-25T14:23:03;12.70;99.90
2389;DHT22;1205;47.984;7.668;2023-04-25T14:25:29;12.50;99.90
2389;DHT22;1205;47.984;7.668;2023-04-25T14:27:55;12.50;99.90
2389;DHT22;1205;47.984;7.668;2023-04-25T14:30:21;12.50;99.90
2389;DHT22;1205;47.984;7.668;2023-04-25T14:32:49;12.50;99.90
2389;DHT22;1205;47.984;7.668;2023-04-25T14:35:14;12.60;99.90
2389;DHT22;1205;47.984;7.668;2023-04-25T14:37:40;12.70;99.90
2389;DHT22;1205;47.984;7.668;2023-04-25T14:40:07;12.80;99.90
2389;DHT22;1205;47.984;7.668;2023-04-25T14:42:36;12.90;99.90
2389;DHT22;1205;47.984;7.668;2023-04-25T14:45:02;12.90;99.90
2389;DHT22;1205;47.984;7.668;2023-04-25T14:47:28;12.90;99.90
2389;DHT22;1205;47.984;7.668;2023-04-25T14:49:53;12.80;99.90
2389;DHT22;1205;47.984;7.668;2023-04-25T14:52:20;12.80;99.90
2389;DHT22;1205;47.984;7.668;2023-04-25T14:54:46;12.50;99.90
2389;DHT22;1205;47.984;7.668;2023-04-25T14:57:12;12.30;99.90
2389;DHT22;1205;47.984;7.668;2023-04-25T14:59:38;12.00;99.90
2389;DHT22;1205;47.984;7.668;2023-04-25T15:02:04;11.80;99.90
2389;DHT22;1205;47.984;7.668;2023-04-25T15:04:29;11.60;99.90
2389;DHT22;1205;47.984;7.668;2023-04-25T15:06:55;11.20;99.90
2389;DHT22;1205;47.984;7.668;2023-04-25T15:09:21;11.10;99.90
2389;DHT22;1205;47.984;7.668;2023-04-25T15:11:48;10.80;99.90
2389;DHT22;1205;47.984;7.668;2023-04-25T15:14:14;10.80;99.90
2389;DHT22;1205;47.984;7.668;2023-04-25T15:16:39;10.60;99.90
2389;DHT22;1205;47.984;7.668;2023-04-25T15:19:05;10.70;99.90
2389;DHT22;1205;47.984;7.668;2023-04-25T15:21:31;10.70;99.90
2389;DHT22;1205;47.984;7.668;2023-04-25T15:23:57;10.70;99.90
2389;DHT22;1205;47.984;7.668;2023-04-25T15:26:22;10.70;99.90
2389;DHT22;1205;47.984;7.668;2023-04-25T15:28:48;10.70;99.90
2389;DHT22;1205;47.984;7.668;2023-04-25T15:31:14;10.80;99.90
2389;DHT22;1205;47.984;7.668;2023-04-25T15:33:39;10.90;99.90
2389;DHT22;1205;47.984;7.668;2023-04-25T15:36:05;11.10;99.90
2389;DHT22;1205;47.984;7.668;2023-04-25T15:38:31;11.00;99.90
2389;DHT22;1205;47.984;7.668;2023-04-25T15:40:57;11.00;99.90
2389;DHT22;1205;47.984;7.668;2023-04-25T15:43:23;11.10;99.90
2389;DHT22;1205;47.984;7.668;2023-04-25T15:45:48;11.10;99.90
2389;DHT22;1205;47.984;7.668;2023-04-25T15:48:14;11.00;99.90
2389;DHT22;1205;47.984;7.668;2023-04-25T15:50:40;11.00;99.90
2389;DHT22;1205;47.984;7.668;2023-04-25T15:53:06;10.90;99.90
2389;DHT22;1205;47.984;7.668;2023-04-25T15:55:32;10.90;99.90
2389;DHT22;1205;47.984;7.668;2023-04-25T15:57:58;11.10;99.90
2389;DHT22;1205;47.984;7.668;2023-04-25T16:00:23;11.40;99.90
2389;DHT22;1205;47.984;7.668;2023-04-25T16:02:49;11.50;99.90
2389;DHT22;1205;47.984;7.668;2023-04-25T16:05:15;11.60;99.90
2389;DHT22;1205;47.984;7.668;2023-04-25T16:07:42;11.60;99.90
2389;DHT22;1205;47.984;7.668;2023-04-25T16:10:09;11.60;99.90
2389;DHT22;1205;47.984;7.668;2023-04-25T16:12:35;11.60;99.90